sensor_id;sensor_type;location;lat;lon;timestamp;temperature;humidity
37788;DHT22;23627;53.302;-6.362;2023-08-17T00:01:40;14.00;99.90
37788;DHT22;23627;53.302;-6.362;2023-08-17T00:04:07;14.00;99.90
37788;DHT22;23627;53.302;-6.362;2023-08-17T00:06:33;14.00;99.90
37788;DHT22;23627;53.302;-6.362;2023-08-17T00:08:58;14.00;99.90
37788;DHT22;23627;53.302;-6.362;2023-08-17T00:11:24;14.10;99.90
37788;DHT22;23627;53.302;-6.362;2023-08-17T00:13:50;14.10;99.90
37788;DHT22;23627;53.302;-6.362;2023-08-17T00:16:16;14.10;99.90
37788;DHT22;23627;53.302;-6.362;2023-08-17T00:18:42;14.10;99.90
37788;DHT22;23627;53.302;-6.362;2023-08-17T00:21:08;14.10;99.90
37788;DHT22;23627;53.302;-6.362;2023-08-17T00:23:33;14.10;99.90
37788;DHT22;23627;53.302;-6.362;2023-08-17T00:25:59;14.10;99.90
37788;DHT22;23627;53.302;-6.362;2023-08-17T00:28:25;14.10;99.90
37788;DHT22;23627;53.302;-6.362;2023-08-17T00:30:51;14.10;99.90
37788;DHT22;23627;53.302;-6.362;2023-08-17T00:33:17;14.00;99.90
37788;DHT22;23627;53.302;-6.362;2023-08-17T00:35:43;14.00;99.90
37788;DHT22;23627;53.302;-6.362;2023-08-17T00:38:08;14.00;99.90
37788;DHT22;23627;53.302;-6.362;2023-08-17T00:40:34;13.90;99.90
37788;DHT22;23627;53.302;-6.362;2023-08-17T00:43:00;13.90;99.90
37788;DHT22;23627;53.302;-6.362;2023-08-17T00:45:26;13.90;99.90
37788;DHT22;23627;53.302;-6.362;2023-08-17T00:47:55;13.90;99.90
37788;DHT22;23627;53.302;-6.362;2023-08-17T00:50:22;13.80;99.90
37788;DHT22;23627;53.302;-6.362;2023-08-17T00:52:48;13.80;99.90
37788;DHT22;23627;53.302;-6.362;2023-08-17T00:55:14;13.80;99.90
37788;DHT22;23627;53.302;-6.362;2023-08-17T00:57:40;13.80;99.90
37788;DHT22;23627;53.302;-6.362;2023-08-17T01:00:09;13.80;99.90
37788;DHT22;23627;53.302;-6.362;2023-08-17T01:02:35;13.80;99.90
37788;DHT22;23627;53.302;-6.362;2023-08-17T01:05:01;13.80;99.90
37788;DHT22;23627;53.302;-6.362;2023-08-17T01:07:27;13.80;99.90
37788;DHT22;23627;53.302;-6.362;2023-08-17T01:09:52;13.80;99.90
37788;DHT22;23627;53.302;-6.362;2023-08-17T01:13:10;13.80;99.90
37788;DHT22;23627;53.302;-6.362;2023-08-17T01:15:22;13.80;99.90
37788;DHT22;23627;53.302;-6.362;2023-08-17T01:20:19;13.80;99.90
37788;DHT22;23627;53.302;-6.362;2023-08-17T01:22:48;13.70;99.90
37788;DHT22;23627;53.302;-6.362;2023-08-17T01:25:14;13.70;99.90
37788;DHT22;23627;53.302;-6.362;2023-08-17T01:27:46;13.60;99.90
37788;DHT22;23627;53.302;-6.362;2023-08-17T01:30:15;13.60;99.90
37788;DHT22;23627;53.302;-6.362;2023-08-17T01:37:50;13.60;99.90
37788;DHT22;23627;53.302;-6.362;2023-08-17T01:40:17;13.60;99.90
37788;DHT22;23627;53.302;-6.362;2023-08-17T01:42:43;13.60;99.90
37788;DHT22;23627;53.302;-6.362;2023-08-17T01:45:09;13.60;99.90
37788;DHT22;23627;53.302;-6.362;2023-08-17T01:47:36;13.60;99.90
37788;DHT22;23627;53.302;-6.362;2023-08-17T01:50:02;13.60;99.90
37788;DHT22;23627;53.302;-6.362;2023-08-17T01:52:28;13.60;99.90
37788;DHT22;23627;53.302;-6.362;2023-08-17T01:54:54;13.50;99.90
37788;DHT22;23627;53.302;-6.362;2023-08-17T01:57:19;13.60;99.90
37788;DHT22;23627;53.302;-6.362;2023-08-17T01:59:46;13.50;99.90
37788;DHT22;23627;53.302;-6.362;2023-08-17T02:02:11;13.50;99.90
37788;DHT22;23627;53.302;-6.362;2023-08-17T02:04:40;13.50;99.90
37788;DHT22;23627;53.302;-6.362;2023-08-17T02:07:06;13.50;99.90
37788;DHT22;23627;53.302;-6.362;2023-08-17T02:09:31;13.50;99.90
37788;DHT22;23627;53.302;-6.362;2023-08-17T02:11:57;13.50;99.90
37788;DHT22;23627;53.302;-6.362;2023-08-17T02:14:23;13.50;99.90
37788;DHT22;23627;53.302;-6.362;2023-08-17T02:16:48;13.40;99.90
37788;DHT22;23627;53.302;-6.362;2023-08-17T02:19:14;13.40;99.90
37788;DHT22;23627;53.302;-6.362;2023-08-17T02:21:40;13.30;99.90
37788;DHT22;23627;53.302;-6.362;2023-08-17T02:24:06;13.30;99.90
37788;DHT22;23627;53.302;-6.362;2023-08-17T02:26:31;13.30;99.90
37788;DHT22;23627;53.302;-6.362;2023-08-17T02:28:57;13.30;99.90
37788;DHT22;23627;53.302;-6.362;2023-08-17T02:31:23;13.30;99.90
37788;DHT22;23627;53.302;-6.362;2023-08-17T02:33:49;13.30;99.90
37788;DHT22;23627;53.302;-6.362;2023-08-17T02:36:14;13.30;99.90
37788;DHT22;23627;53.302;-6.362;2023-08-17T02:38:40;13.30;99.90
37788;DHT22;23627;53.302;-6.362;2023-08-17T02:41:06;13.30;99.90
37788;DHT22;23627;53.302;-6.362;2023-08-17T02:43:31;13.30;99.90
37788;DHT22;23627;53.302;-6.362;2023-08-17T02:45:57;13.30;99.90
37788;DHT22;23627;53.302;-6.362;2023-08-17T02:48:25;13.40;99.90
37788;DHT22;23627;53.302;-6.362;2023-08-17T02:50:50;13.40;99.90
37788;DHT22;23627;53.302;-6.362;2023-08-17T02:53:16;13.40;99.90
37788;DHT22;23627;53.302;-6.362;2023-08-17T02:55:42;13.40;99.90
37788;DHT22;23627;53.302;-6.362;2023-08-17T02:58:07;13.40;99.90
37788;DHT22;23627;53.302;-6.362;2023-08-17T03:00:33;13.40;99.90
37788;DHT22;23627;53.302;-6.362;2023-08-17T03:02:59;13.40;99.90
37788;DHT22;23627;53.302;-6.362;2023-08-17T03:05:24;13.40;99.90
37788;DHT22;23627;53.302;-6.362;2023-08-17T03:07:50;13.40;99.90
37788;DHT22;23627;53.302;-6.362;2023-08-17T03:10:16;13.40;99.90
37788;DHT22;23627;53.302;-6.362;2023-08-17T03:12:42;13.40;99.90
37788;DHT22;23627;53.302;-6.362;2023-08-17T03:15:08;13.30;99.90
37788;DHT22;23627;53.302;-6.362;2023-08-17T03:17:34;13.40;99.90
37788;DHT22;23627;53.302;-6.362;2023-08-17T03:20:00;13.40;99.90
37788;DHT22;23627;53.302;-6.362;2023-08-17T03:22:25;13.30;99.90
37788;DHT22;23627;53.302;-6.362;2023-08-17T03:24:51;13.40;99.90
37788;DHT22;23627;53.302;-6.362;2023-08-17T03:27:17;13.40;99.90
37788;DHT22;23627;53.302;-6.362;2023-08-17T03:29:42;13.40;99.90
37788;DHT22;23627;53.302;-6.362;2023-08-17T03:32:08;13.40;99.90
37788;DHT22;23627;53.302;-6.362;2023-08-17T03:34:34;13.40;99.90
37788;DHT22;23627;53.302;-6.362;2023-08-17T03:37:00;13.40;99.90
37788;DHT22;23627;53.302;-6.362;2023-08-17T03:39:25;13.40;99.90
37788;DHT22;23627;53.302;-6.362;2023-08-17T03:41:51;13.40;99.90
37788;DHT22;23627;53.302;-6.362;2023-08-17T03:44:17;13.30;99.90
37788;DHT22;23627;53.302;-6.362;2023-08-17T03:46:42;13.30;99.90
37788;DHT22;23627;53.302;-6.362;2023-08-17T03:49:08;13.30;99.90
37788;DHT22;23627;53.302;-6.362;2023-08-17T03:51:34;13.30;99.90
37788;DHT22;23627;53.302;-6.362;2023-08-17T03:54:00;13.30;99.90
37788;DHT22;23627;53.302;-6.362;2023-08-17T03:56:25;13.20;99.90
37788;DHT22;23627;53.302;-6.362;2023-08-17T03:58:53;13.20;99.90
37788;DHT22;23627;53.302;-6.362;2023-08-17T04:01:19;13.20;99.90
37788;DHT22;23627;53.302;-6.362;2023-08-17T04:03:44;13.20;99.90
37788;DHT22;23627;53.302;-6.362;2023-08-17T04:06:10;13.20;99.90
37788;DHT22;23627;53.302;-6.362;2023-08-17T04:08:37;13.20;99.90
37788;DHT22;23627;53.302;-6.362;2023-08-17T04:11:03;13.10;99.90
37788;DHT22;23627;53.302;-6.362;2023-08-17T04:13:29;13.10;99.90
37788;DHT22;23627;53.302;-6.362;2023-08-17T04:15:55;13.20;99.90
37788;DHT22;23627;53.302;-6.362;2023-08-17T04:18:20;13.20;99.90
37788;DHT22;23627;53.302;-6.362;2023-08-17T04:20:46;13.20;99.90
37788;DHT22;23627;53.302;-6.362;2023-08-17T04:23:12;13.20;99.90
37788;DHT22;23627;53.302;-6.362;2023-08-17T04:25:37;13.20;99.90
37788;DHT22;23627;53.302;-6.362;2023-08-17T04:28:04;13.20;99.90
37788;DHT22;23627;53.302;-6.362;2023-08-17T04:30:30;13.30;99.90
37788;DHT22;23627;53.302;-6.362;2023-08-17T04:32:55;13.20;99.90
37788;DHT22;23627;53.302;-6.362;2023-08-17T04:35:21;13.20;99.90
37788;DHT22;23627;53.302;-6.362;2023-08-17T04:37:47;13.20;99.90
37788;DHT22;23627;53.302;-6.362;2023-08-17T04:40:13;13.20;99.90
37788;DHT22;23627;53.302;-6.362;2023-08-17T04:42:39;13.20;99.90
37788;DHT22;23627;53.302;-6.362;2023-08-17T04:45:05;13.10;99.90
37788;DHT22;23627;53.302;-6.362;2023-08-17T04:47:31;13.10;99.90
37788;DHT22;23627;53.302;-6.362;2023-08-17T04:49:57;13.10;99.90
37788;DHT22;23627;53.302;-6.362;2023-08-17T04:52:22;13.20;99.90
37788;DHT22;23627;53.302;-6.362;2023-08-17T04:54:48;13.20;99.90
37788;DHT22;23627;53.302;-6.362;2023-08-17T04:57:14;13.20;99.90
37788;DHT22;23627;53.302;-6.362;2023-08-17T04:59:40;13.30;99.90
37788;DHT22;23627;53.302;-6.362;2023-08-17T05:02:06;13.30;99.90
37788;DHT22;23627;53.302;-6.362;2023-08-17T05:04:32;13.30;99.90
37788;DHT22;23627;53.302;-6.362;2023-08-17T05:06:57;13.30;99.90
37788;DHT22;23627;53.302;-6.362;2023-08-17T05:09:23;13.40;99.90
37788;DHT22;23627;53.302;-6.362;2023-08-17T05:11:49;13.40;99.90
37788;DHT22;23627;53.302;-6.362;2023-08-17T05:14:15;13.40;99.90
37788;DHT22;23627;53.302;-6.362;2023-08-17T05:16:40;13.40;99.90
37788;DHT22;23627;53.302;-6.362;2023-08-17T05:19:06;13.40;99.90
37788;DHT22;23627;53.302;-6.362;2023-08-17T05:21:32;13.40;99.90
37788;DHT22;23627;53.302;-6.362;2023-08-17T05:23:58;13.40;99.90
37788;DHT22;23627;53.302;-6.362;2023-08-17T05:26:23;13.50;99.90
37788;DHT22;23627;53.302;-6.362;2023-08-17T05:28:49;13.50;99.90
37788;DHT22;23627;53.302;-6.362;2023-08-17T05:31:15;13.50;99.90
37788;DHT22;23627;53.302;-6.362;2023-08-17T05:33:40;13.50;99.90
37788;DHT22;23627;53.302;-6.362;2023-08-17T05:36:07;13.60;99.90
37788;DHT22;23627;53.302;-6.362;2023-08-17T05:38:33;13.60;99.90
37788;DHT22;23627;53.302;-6.362;2023-08-17T05:40:59;13.60;99.90
37788;DHT22;23627;53.302;-6.362;2023-08-17T05:43:25;13.60;99.90
37788;DHT22;23627;53.302;-6.362;2023-08-17T05:45:51;13.60;99.90
37788;DHT22;23627;53.302;-6.362;2023-08-17T05:48:19;13.70;99.90
37788;DHT22;23627;53.302;-6.362;2023-08-17T05:50:45;13.70;99.90
37788;DHT22;23627;53.302;-6.362;2023-08-17T05:53:10;13.70;99.90
37788;DHT22;23627;53.302;-6.362;2023-08-17T05:55:36;13.80;99.90
37788;DHT22;23627;53.302;-6.362;2023-08-17T05:58:02;13.80;99.90
37788;DHT22;23627;53.302;-6.362;2023-08-17T06:00:29;13.80;99.90
37788;DHT22;23627;53.302;-6.362;2023-08-17T06:02:55;13.90;99.90
37788;DHT22;23627;53.302;-6.362;2023-08-17T06:05:27;14.00;99.90
37788;DHT22;23627;53.302;-6.362;2023-08-17T06:07:54;14.00;99.90
37788;DHT22;23627;53.302;-6.362;2023-08-17T06:10:20;14.00;99.90
37788;DHT22;23627;53.302;-6.362;2023-08-17T06:12:46;14.00;99.90
37788;DHT22;23627;53.302;-6.362;2023-08-17T06:15:13;14.10;99.90
37788;DHT22;23627;53.302;-6.362;2023-08-17T06:17:39;14.10;99.90
37788;DHT22;23627;53.302;-6.362;2023-08-17T06:20:05;14.20;99.90
37788;DHT22;23627;53.302;-6.362;2023-08-17T06:22:35;14.20;99.90
37788;DHT22;23627;53.302;-6.362;2023-08-17T06:25:01;14.20;99.90
37788;DHT22;23627;53.302;-6.362;2023-08-17T06:27:27;14.30;99.90
37788;DHT22;23627;53.302;-6.362;2023-08-17T06:29:53;14.30;99.90
37788;DHT22;23627;53.302;-6.362;2023-08-17T06:32:18;14.40;99.90
37788;DHT22;23627;53.302;-6.362;2023-08-17T06:34:44;14.40;99.90
37788;DHT22;23627;53.302;-6.362;2023-08-17T06:37:10;14.40;99.90
37788;DHT22;23627;53.302;-6.362;2023-08-17T06:39:36;14.40;99.90
37788;DHT22;23627;53.302;-6.362;2023-08-17T06:42:01;14.40;99.90
37788;DHT22;23627;53.302;-6.362;2023-08-17T06:44:27;14.50;99.90
37788;DHT22;23627;53.302;-6.362;2023-08-17T06:46:54;14.50;99.90
37788;DHT22;23627;53.302;-6.362;2023-08-17T06:49:20;14.60;99.90
37788;DHT22;23627;53.302;-6.362;2023-08-17T06:51:45;14.60;99.90
37788;DHT22;23627;53.302;-6.362;2023-08-17T06:54:11;14.60;99.90
37788;DHT22;23627;53.302;-6.362;2023-08-17T06:56:37;14.70;99.90
37788;DHT22;23627;53.302;-6.362;2023-08-17T06:59:03;14.70;99.90
37788;DHT22;23627;53.302;-6.362;2023-08-17T07:01:28;14.80;99.90
37788;DHT22;23627;53.302;-6.362;2023-08-17T07:03:54;14.90;99.90
37788;DHT22;23627;53.302;-6.362;2023-08-17T07:06:20;14.90;99.90
37788;DHT22;23627;53.302;-6.362;2023-08-17T07:08:45;15.00;99.90
37788;DHT22;23627;53.302;-6.362;2023-08-17T07:11:11;15.10;99.90
37788;DHT22;23627;53.302;-6.362;2023-08-17T07:13:37;15.10;99.90
37788;DHT22;23627;53.302;-6.362;2023-08-17T07:16:03;15.20;99.90
37788;DHT22;23627;53.302;-6.362;2023-08-17T07:18:28;15.30;99.90
37788;DHT22;23627;53.302;-6.362;2023-08-17T07:20:54;15.30;99.90
37788;DHT22;23627;53.302;-6.362;2023-08-17T07:23:20;15.40;99.90
37788;DHT22;23627;53.302;-6.362;2023-08-17T07:25:48;15.50;99.90
37788;DHT22;23627;53.302;-6.362;2023-08-17T07:28:14;15.50;99.90
37788;DHT22;23627;53.302;-6.362;2023-08-17T07:30:41;15.60;99.90
37788;DHT22;23627;53.302;-6.362;2023-08-17T07:33:07;15.60;99.90
37788;DHT22;23627;53.302;-6.362;2023-08-17T07:35:32;15.70;99.90
37788;DHT22;23627;53.302;-6.362;2023-08-17T07:37:58;15.90;99.90
37788;DHT22;23627;53.302;-6.362;2023-08-17T07:40:24;16.00;99.90
37788;DHT22;23627;53.302;-6.362;2023-08-17T07:42:49;16.40;99.90
37788;DHT22;23627;53.302;-6.362;2023-08-17T07:45:15;16.70;99.90
37788;DHT22;23627;53.302;-6.362;2023-08-17T07:47:41;16.80;99.90
37788;DHT22;23627;53.302;-6.362;2023-08-17T07:50:08;16.90;99.90
37788;DHT22;23627;53.302;-6.362;2023-08-17T07:52:34;17.20;99.90
37788;DHT22;23627;53.302;-6.362;2023-08-17T07:54:59;17.50;99.90
37788;DHT22;23627;53.302;-6.362;2023-08-17T07:57:25;18.00;99.90
37788;DHT22;23627;53.302;-6.362;2023-08-17T07:59:51;18.40;99.90
37788;DHT22;23627;53.302;-6.362;2023-08-17T08:02:17;18.80;99.90
37788;DHT22;23627;53.302;-6.362;2023-08-17T08:04:43;19.00;99.90
37788;DHT22;23627;53.302;-6.362;2023-08-17T08:07:10;19.20;99.90
37788;DHT22;23627;53.302;-6.362;2023-08-17T08:09:36;19.40;99.90
37788;DHT22;23627;53.302;-6.362;2023-08-17T08:12:02;19.70;99.90
37788;DHT22;23627;53.302;-6.362;2023-08-17T08:14:28;19.90;99.90
37788;DHT22;23627;53.302;-6.362;2023-08-17T08:16:54;20.00;99.90
37788;DHT22;23627;53.302;-6.362;2023-08-17T08:19:20;20.30;99.90
37788;DHT22;23627;53.302;-6.362;2023-08-17T08:21:46;20.50;99.90
37788;DHT22;23627;53.302;-6.362;2023-08-17T08:24:11;20.50;99.90
37788;DHT22;23627;53.302;-6.362;2023-08-17T08:26:37;20.70;99.90
37788;DHT22;23627;53.302;-6.362;2023-08-17T08:29:03;20.80;99.90
37788;DHT22;23627;53.302;-6.362;2023-08-17T08:31:29;20.90;99.90
37788;DHT22;23627;53.302;-6.362;2023-08-17T08:33:54;21.10;99.90
37788;DHT22;23627;53.302;-6.362;2023-08-17T08:36:20;21.10;99.90
37788;DHT22;23627;53.302;-6.362;2023-08-17T08:38:46;21.30;99.90
37788;DHT22;23627;53.302;-6.362;2023-08-17T08:41:12;21.20;99.90
37788;DHT22;23627;53.302;-6.362;2023-08-17T08:43:38;21.30;99.90
37788;DHT22;23627;53.302;-6.362;2023-08-17T08:46:04;21.40;99.90
37788;DHT22;23627;53.302;-6.362;2023-08-17T08:48:32;21.40;99.90
37788;DHT22;23627;53.302;-6.362;2023-08-17T08:51:00;21.50;99.90
37788;DHT22;23627;53.302;-6.362;2023-08-17T08:53:38;21.50;99.90
37788;DHT22;23627;53.302;-6.362;2023-08-17T08:56:08;21.30;99.90
37788;DHT22;23627;53.302;-6.362;2023-08-17T08:58:37;21.40;99.90
37788;DHT22;23627;53.302;-6.362;2023-08-17T09:01:08;21.40;99.90
37788;DHT22;23627;53.302;-6.362;2023-08-17T09:03:36;21.50;99.90
37788;DHT22;23627;53.302;-6.362;2023-08-17T09:06:02;21.40;99.90
37788;DHT22;23627;53.302;-6.362;2023-08-17T09:08:30;21.50;99.90
37788;DHT22;23627;53.302;-6.362;2023-08-17T09:10:56;21.50;99.90
37788;DHT22;23627;53.302;-6.362;2023-08-17T09:13:22;21.60;99.90
37788;DHT22;23627;53.302;-6.362;2023-08-17T09:15:48;21.60;99.90
37788;DHT22;23627;53.302;-6.362;2023-08-17T09:18:16;21.50;99.90
37788;DHT22;23627;53.302;-6.362;2023-08-17T09:20:47;21.20;99.90
37788;DHT22;23627;53.302;-6.362;2023-08-17T09:23:15;21.00;99.90
37788;DHT22;23627;53.302;-6.362;2023-08-17T09:25:42;20.90;99.90
37788;DHT22;23627;53.302;-6.362;2023-08-17T09:28:10;20.70;99.90
37788;DHT22;23627;53.302;-6.362;2023-08-17T09:30:59;20.80;99.90
37788;DHT22;23627;53.302;-6.362;2023-08-17T09:33:27;20.80;99.90
37788;DHT22;23627;53.302;-6.362;2023-08-17T09:35:54;20.90;99.90
37788;DHT22;23627;53.302;-6.362;2023-08-17T09:38:20;21.10;99.90
37788;DHT22;23627;53.302;-6.362;2023-08-17T09:40:47;21.50;99.90
37788;DHT22;23627;53.302;-6.362;2023-08-17T09:43:14;21.60;99.90
37788;DHT22;23627;53.302;-6.362;2023-08-17T09:45:41;21.70;99.90
37788;DHT22;23627;53.302;-6.362;2023-08-17T09:48:08;21.60;99.90
37788;DHT22;23627;53.302;-6.362;2023-08-17T09:50:35;21.40;99.90
37788;DHT22;23627;53.302;-6.362;2023-08-17T09:53:04;21.30;99.90
37788;DHT22;23627;53.302;-6.362;2023-08-17T09:55:33;21.20;99.90
37788;DHT22;23627;53.302;-6.362;2023-08-17T09:57:59;21.40;99.90
37788;DHT22;23627;53.302;-6.362;2023-08-17T10:00:27;21.50;99.90
37788;DHT22;23627;53.302;-6.362;2023-08-17T10:02:53;21.60;99.90
37788;DHT22;23627;53.302;-6.362;2023-08-17T10:05:19;21.70;99.90
37788;DHT22;23627;53.302;-6.362;2023-08-17T10:07:57;21.60;99.90
37788;DHT22;23627;53.302;-6.362;2023-08-17T10:10:27;21.50;99.90
37788;DHT22;23627;53.302;-6.362;2023-08-17T10:13:10;21.20;99.90
37788;DHT22;23627;53.302;-6.362;2023-08-17T10:15:55;21.10;99.90
37788;DHT22;23627;53.302;-6.362;2023-08-17T10:18:54;21.10;99.90
37788;DHT22;23627;53.302;-6.362;2023-08-17T10:21:29;21.30;99.90
37788;DHT22;23627;53.302;-6.362;2023-08-17T10:23:56;21.50;99.90
37788;DHT22;23627;53.302;-6.362;2023-08-17T10:26:24;21.70;99.90
37788;DHT22;23627;53.302;-6.362;2023-08-17T10:28:51;21.70;99.90
37788;DHT22;23627;53.302;-6.362;2023-08-17T10:31:17;21.70;99.90
37788;DHT22;23627;53.302;-6.362;2023-08-17T10:33:44;21.90;99.90
37788;DHT22;23627;53.302;-6.362;2023-08-17T10:36:12;21.80;99.90
37788;DHT22;23627;53.302;-6.362;2023-08-17T10:38:38;21.70;99.90
37788;DHT22;23627;53.302;-6.362;2023-08-17T10:41:08;21.70;99.90
37788;DHT22;23627;53.302;-6.362;2023-08-17T10:43:35;21.70;99.90
37788;DHT22;23627;53.302;-6.362;2023-08-17T10:46:18;21.60;99.90
37788;DHT22;23627;53.302;-6.362;2023-08-17T10:48:44;21.80;99.90
37788;DHT22;23627;53.302;-6.362;2023-08-17T10:51:10;22.10;99.90
37788;DHT22;23627;53.302;-6.362;2023-08-17T10:53:40;22.10;99.90
37788;DHT22;23627;53.302;-6.362;2023-08-17T10:56:12;22.10;99.90
37788;DHT22;23627;53.302;-6.362;2023-08-17T10:58:39;22.30;99.90
37788;DHT22;23627;53.302;-6.362;2023-08-17T11:01:04;22.20;99.90
37788;DHT22;23627;53.302;-6.362;2023-08-17T11:03:30;22.30;99.90
37788;DHT22;23627;53.302;-6.362;2023-08-17T11:05:57;22.10;99.90
37788;DHT22;23627;53.302;-6.362;2023-08-17T11:08:34;22.10;99.90
37788;DHT22;23627;53.302;-6.362;2023-08-17T11:11:09;22.10;99.90
37788;DHT22;23627;53.302;-6.362;2023-08-17T11:13:37;22.10;99.90
37788;DHT22;23627;53.302;-6.362;2023-08-17T11:16:04;22.00;99.90
37788;DHT22;23627;53.302;-6.362;2023-08-17T11:18:34;22.10;99.90
37788;DHT22;23627;53.302;-6.362;2023-08-17T11:21:02;22.20;99.90
37788;DHT22;23627;53.302;-6.362;2023-08-17T11:23:32;22.20;99.90
37788;DHT22;23627;53.302;-6.362;2023-08-17T11:25:58;22.10;99.90
37788;DHT22;23627;53.302;-6.362;2023-08-17T11:28:26;22.10;99.90
37788;DHT22;23627;53.302;-6.362;2023-08-17T11:30:59;22.10;99.90
37788;DHT22;23627;53.302;-6.362;2023-08-17T11:33:30;22.30;99.90
37788;DHT22;23627;53.302;-6.362;2023-08-17T11:35:56;22.50;99.90
37788;DHT22;23627;53.302;-6.362;2023-08-17T11:38:22;22.40;99.90
37788;DHT22;23627;53.302;-6.362;2023-08-17T11:40:49;22.40;99.90
37788;DHT22;23627;53.302;-6.362;2023-08-17T11:43:16;22.20;99.90
37788;DHT22;23627;53.302;-6.362;2023-08-17T11:45:42;22.30;99.90
37788;DHT22;23627;53.302;-6.362;2023-08-17T11:48:08;22.50;99.90
37788;DHT22;23627;53.302;-6.362;2023-08-17T11:50:35;22.70;99.90
37788;DHT22;23627;53.302;-6.362;2023-08-17T11:53:00;22.80;99.90
37788;DHT22;23627;53.302;-6.362;2023-08-17T11:55:26;23.00;99.90
37788;DHT22;23627;53.302;-6.362;2023-08-17T11:57:53;23.00;99.90
37788;DHT22;23627;53.302;-6.362;2023-08-17T12:00:20;23.00;99.90
37788;DHT22;23627;53.302;-6.362;2023-08-17T12:02:50;22.90;99.90
37788;DHT22;23627;53.302;-6.362;2023-08-17T12:05:23;22.70;99.90
37788;DHT22;23627;53.302;-6.362;2023-08-17T12:08:09;22.60;99.90
37788;DHT22;23627;53.302;-6.362;2023-08-17T12:10:37;22.30;99.90
37788;DHT22;23627;53.302;-6.362;2023-08-17T12:13:02;22.00;99.90
37788;DHT22;23627;53.302;-6.362;2023-08-17T12:15:33;21.80;99.90
37788;DHT22;23627;53.302;-6.362;2023-08-17T12:18:00;21.70;99.90
37788;DHT22;23627;53.302;-6.362;2023-08-17T12:20:26;21.60;99.90
37788;DHT22;23627;53.302;-6.362;2023-08-17T12:22:52;21.60;99.90
37788;DHT22;23627;53.302;-6.362;2023-08-17T12:25:21;21.60;99.90
37788;DHT22;23627;53.302;-6.362;2023-08-17T12:27:48;21.60;99.90
37788;DHT22;23627;53.302;-6.362;2023-08-17T12:30:27;21.60;99.90
37788;DHT22;23627;53.302;-6.362;2023-08-17T12:32:53;21.60;99.90
37788;DHT22;23627;53.302;-6.362;2023-08-17T12:35:19;21.70;99.90
37788;DHT22;23627;53.302;-6.362;2023-08-17T12:37:47;21.80;99.90
37788;DHT22;23627;53.302;-6.362;2023-08-17T12:40:13;21.90;99.90
37788;DHT22;23627;53.302;-6.362;2023-08-17T12:42:39;22.00;99.90
37788;DHT22;23627;53.302;-6.362;2023-08-17T12:45:05;22.00;99.90
37788;DHT22;23627;53.302;-6.362;2023-08-17T12:47:31;21.90;99.90
37788;DHT22;23627;53.302;-6.362;2023-08-17T12:49:56;21.70;99.90
37788;DHT22;23627;53.302;-6.362;2023-08-17T12:52:22;21.60;99.90
37788;DHT22;23627;53.302;-6.362;2023-08-17T12:54:48;21.60;99.90
37788;DHT22;23627;53.302;-6.362;2023-08-17T12:57:14;21.60;99.90
37788;DHT22;23627;53.302;-6.362;2023-08-17T12:59:39;21.60;99.90
37788;DHT22;23627;53.302;-6.362;2023-08-17T13:02:05;21.70;99.90
37788;DHT22;23627;53.302;-6.362;2023-08-17T13:04:31;21.70;99.90
37788;DHT22;23627;53.302;-6.362;2023-08-17T13:06:57;21.60;99.90
37788;DHT22;23627;53.302;-6.362;2023-08-17T13:09:22;21.80;99.90
37788;DHT22;23627;53.302;-6.362;2023-08-17T13:11:48;21.70;99.90
37788;DHT22;23627;53.302;-6.362;2023-08-17T13:14:14;21.90;99.90
37788;DHT22;23627;53.302;-6.362;2023-08-17T13:16:41;21.90;99.90
37788;DHT22;23627;53.302;-6.362;2023-08-17T13:19:07;21.60;99.90
37788;DHT22;23627;53.302;-6.362;2023-08-17T13:21:33;21.50;99.90
37788;DHT22;23627;53.302;-6.362;2023-08-17T13:24:00;21.60;99.90
37788;DHT22;23627;53.302;-6.362;2023-08-17T13:26:25;21.60;99.90
37788;DHT22;23627;53.302;-6.362;2023-08-17T13:28:51;21.40;99.90
37788;DHT22;23627;53.302;-6.362;2023-08-17T13:31:17;21.60;99.90
37788;DHT22;23627;53.302;-6.362;2023-08-17T13:33:42;21.80;99.90
37788;DHT22;23627;53.302;-6.362;2023-08-17T13:36:08;21.90;99.90
37788;DHT22;23627;53.302;-6.362;2023-08-17T13:38:34;22.00;99.90
37788;DHT22;23627;53.302;-6.362;2023-08-17T13:40:59;22.10;99.90
37788;DHT22;23627;53.302;-6.362;2023-08-17T13:43:25;22.30;99.90
37788;DHT22;23627;53.302;-6.362;2023-08-17T13:45:51;22.20;99.90
37788;DHT22;23627;53.302;-6.362;2023-08-17T13:48:17;22.10;99.90
37788;DHT22;23627;53.302;-6.362;2023-08-17T13:50:42;22.10;99.90
37788;DHT22;23627;53.302;-6.362;2023-08-17T13:53:08;22.20;99.90
37788;DHT22;23627;53.302;-6.362;2023-08-17T13:55:34;22.20;99.90
37788;DHT22;23627;53.302;-6.362;2023-08-17T13:57:59;22.10;99.90
37788;DHT22;23627;53.302;-6.362;2023-08-17T14:00:25;22.00;99.90
37788;DHT22;23627;53.302;-6.362;2023-08-17T14:02:52;22.30;99.90
37788;DHT22;23627;53.302;-6.362;2023-08-17T14:05:18;22.50;99.90
37788;DHT22;23627;53.302;-6.362;2023-08-17T14:07:44;22.40;99.90
37788;DHT22;23627;53.302;-6.362;2023-08-17T14:10:10;22.20;99.90
37788;DHT22;23627;53.302;-6.362;2023-08-17T14:12:35;22.30;99.90
37788;DHT22;23627;53.302;-6.362;2023-08-17T14:15:01;22.40;99.90
37788;DHT22;23627;53.302;-6.362;2023-08-17T14:17:27;22.60;99.90
37788;DHT22;23627;53.302;-6.362;2023-08-17T14:19:53;22.80;99.90
37788;DHT22;23627;53.302;-6.362;2023-08-17T14:22:20;23.10;99.90
37788;DHT22;23627;53.302;-6.362;2023-08-17T14:24:46;23.20;99.90
37788;DHT22;23627;53.302;-6.362;2023-08-17T14:27:11;22.90;99.90
37788;DHT22;23627;53.302;-6.362;2023-08-17T14:29:37;22.90;99.90
37788;DHT22;23627;53.302;-6.362;2023-08-17T14:32:03;22.90;99.90
37788;DHT22;23627;53.302;-6.362;2023-08-17T14:34:29;22.60;99.90
37788;DHT22;23627;53.302;-6.362;2023-08-17T14:36:55;22.30;99.90
37788;DHT22;23627;53.302;-6.362;2023-08-17T14:39:20;22.20;99.90
37788;DHT22;23627;53.302;-6.362;2023-08-17T14:41:46;22.20;99.90
37788;DHT22;23627;53.302;-6.362;2023-08-17T14:44:12;22.20;99.90
37788;DHT22;23627;53.302;-6.362;2023-08-17T14:46:38;22.10;99.90
37788;DHT22;23627;53.302;-6.362;2023-08-17T14:49:07;21.90;99.90
37788;DHT22;23627;53.302;-6.362;2023-08-17T14:51:38;21.80;99.90
37788;DHT22;23627;53.302;-6.362;2023-08-17T14:54:05;21.70;99.90
37788;DHT22;23627;53.302;-6.362;2023-08-17T14:56:30;21.60;99.90
37788;DHT22;23627;53.302;-6.362;2023-08-17T14:58:56;21.70;99.90
37788;DHT22;23627;53.302;-6.362;2023-08-17T15:01:22;21.80;99.90
37788;DHT22;23627;53.302;-6.362;2023-08-17T15:03:48;21.80;99.90
37788;DHT22;23627;53.302;-6.362;2023-08-17T15:06:16;21.80;99.90
37788;DHT22;23627;53.302;-6.362;2023-08-17T15:08:42;21.60;99.90
37788;DHT22;23627;53.302;-6.362;2023-08-17T15:11:08;21.50;99.90
37788;DHT22;23627;53.302;-6.362;2023-08-17T15:13:33;21.70;99.90
37788;DHT22;23627;53.302;-6.362;2023-08-17T15:15:59;21.90;99.90
37788;DHT22;23627;53.302;-6.362;2023-08-17T15:18:25;21.90;99.90
37788;DHT22;23627;53.302;-6.362;2023-08-17T15:20:51;21.80;99.90